Decoded Metar for KORE (ORANGE in MA, USA) (IATA:ORE) | Meteo·Mobile Aviation Weather
aviador You're here:

KORE Decoded Metar

ORANGE in MA, USA
Report Time2018-09-20 08:10:00
UTC Time2018-09-20 08:51:26
Flight Rules mvfr MVFR
Wind060° at 03 kt
W.Decomp.*RWY 14: 1.3 kt HW 2.7 kt LCW
RWY 01: 1.3 kt HW 2.7 kt RCW
W.Rank060° ranks 30
Current wind is below 060° avg. (5.3)
Visibility9999 m
Phenomena:N/A
Clouds:Broken 019 Hf
Overcast 036 Hf
Expected CloudBase > 1,600 ft AGL from Temp-Dew spread
Ceiling1,900 ft
Temp16°C (ISA +2)
Dew Point12°C (77% RH)
AAT15.5°C
QNH1021 hPa
Density Alt702 ft
Elevation538 ft
Report Wrong Elevation
Raw Report
KORE 200810Z AUTO 06003KT 10SM BKN019 OVC036 16/12 A3016 RMK AO2
T01560122 PWINO $=

Extra information for KORE:More info

Metar Taf Metar & Taf Last 4 Metars F.Rules Stats Wind Profile Meteogram Temp Stats Airport Information Weather charts Add Link Nearby VenuesMetar ALERT Operation Metar Decoded Social comments

AIRNAV info for KORE